Mathews, Louisiana
Current Conditions -  °F | °C
As of 2:15 AM on Monday 26 Jan 2015 (Local Time) from KHUM Reporting Station
Clear Clear  
Wind Chill: 51°   Ceiling: Unl
Heat Index: 51°   Visibility: 7mi
Dew Point: 35°   Wind: 6mph
Humidity: 54%   Direction: 300°WNW
Pressure: 30.05"   Gusts: NA
Location:  29.69°N, 90.55°W
Report Text: KHUM 260815Z AUTO 30005KT 7SM CLR 11/02 A3005 RMK AO2 T01070016
Loading
Personal Weather Stations






























Interactive Weather Map New forecast layout! Learn more

10-Day Weather Forecast

Advertisements
Track Severe Weather on mobile